createdAt,value
2022-12-11T00:00:24.398Z,43.30
2022-12-11T00:02:51.283Z,42.25
2022-12-11T00:05:18.207Z,44.42
2022-12-11T00:07:45.030Z,42.13
2022-12-11T00:10:11.827Z,43.95
2022-12-11T00:12:38.614Z,43.80
2022-12-11T00:15:05.753Z,42.05
2022-12-11T00:17:32.506Z,43.85
2022-12-11T00:19:59.308Z,43.35
2022-12-11T00:22:26.067Z,44.92
2022-12-11T00:24:52.834Z,43.83
2022-12-11T00:27:19.552Z,44.22
2022-12-11T00:29:46.306Z,43.65
2022-12-11T00:32:13.126Z,43.92
2022-12-11T00:34:40.033Z,43.40
2022-12-11T00:37:06.820Z,43.47
2022-12-11T00:39:33.619Z,44.10
2022-12-11T00:42:00.337Z,42.05
2022-12-11T00:44:27.100Z,44.15
2022-12-11T00:46:53.902Z,45.88
2022-12-11T00:49:20.675Z,44.55
2022-12-11T00:51:47.422Z,46.90
2022-12-11T00:54:14.186Z,44.60
2022-12-11T00:56:40.993Z,46.20
2022-12-11T00:59:08.051Z,45.22
2022-12-11T01:01:34.924Z,46.33
2022-12-11T01:04:01.712Z,47.58
2022-12-11T01:06:28.948Z,44.80
2022-12-11T01:09:15.178Z,45.00
2022-12-11T01:11:43.325Z,44.78
2022-12-11T01:14:11.792Z,46.35
2022-12-11T01:16:38.666Z,45.50
2022-12-11T01:19:05.478Z,43.67
2022-12-11T01:21:32.312Z,40.70
2022-12-11T01:23:59.143Z,45.47
2022-12-11T01:26:26.079Z,44.20
2022-12-11T01:28:52.996Z,43.50
2022-12-11T01:31:22.216Z,43.85
2022-12-11T01:33:49.529Z,47.70
2022-12-11T01:36:21.558Z,45.53
2022-12-11T01:38:49.505Z,43.88
2022-12-11T01:41:18.218Z,43.22
2022-12-11T01:43:58.163Z,43.53
2022-12-11T01:46:25.921Z,41.78
2022-12-11T01:48:53.690Z,41.85
2022-12-11T01:51:21.313Z,40.42
2022-12-11T01:53:53.733Z,41.42
2022-12-11T01:56:20.580Z,40.33
2022-12-11T01:58:52.319Z,38.78
2022-12-11T02:01:34.954Z,40.75
2022-12-11T02:04:02.432Z,39.40
2022-12-11T02:06:42.757Z,36.95
2022-12-11T02:09:13.725Z,40.00
2022-12-11T02:12:09.140Z,38.53
2022-12-11T02:14:44.906Z,41.33
2022-12-11T02:17:23.489Z,40.35
2022-12-11T02:19:52.990Z,36.17
2022-12-11T02:22:50.806Z,40.13
2022-12-11T02:25:51.067Z,36.78
2022-12-11T02:28:43.515Z,37.63
2022-12-11T02:31:21.406Z,38.40
2022-12-11T02:33:59.524Z,36.90
2022-12-11T02:36:31.275Z,39.47
2022-12-11T02:39:01.096Z,38.45
2022-12-11T02:41:29.804Z,36.03
2022-12-11T02:43:58.585Z,37.70
2022-12-11T02:46:26.275Z,34.10
2022-12-11T02:48:55.053Z,33.63
2022-12-11T02:51:27.083Z,37.38
2022-12-11T02:53:57.093Z,34.00
2022-12-11T02:56:33.253Z,31.52
2022-12-11T02:59:15.585Z,33.85
2022-12-11T03:01:43.372Z,33.85
2022-12-11T03:04:10.459Z,33.33
2022-12-11T03:06:44.996Z,31.65
2022-12-11T03:09:11.793Z,33.45
2022-12-11T03:11:38.741Z,33.05
2022-12-11T03:14:06.883Z,30.20
2022-12-11T03:16:39.312Z,28.15
2022-12-11T03:19:15.116Z,26.63
2022-12-11T03:22:11.841Z,27.10
2022-12-11T03:24:48.013Z,26.08
2022-12-11T03:27:36.502Z,28.52
2022-12-11T03:30:11.500Z,27.80
2022-12-11T03:32:50.230Z,27.25
2022-12-11T03:35:23.046Z,29.13
2022-12-11T03:40:20.577Z,27.55
2022-12-11T03:42:51.485Z,29.40
2022-12-11T03:45:21.161Z,28.13
2022-12-11T03:47:48.561Z,30.25
2022-12-11T03:50:18.240Z,27.70
2022-12-11T03:52:46.983Z,29.52
2022-12-11T03:55:16.969Z,29.23
2022-12-11T03:57:44.092Z,31.17
2022-12-11T04:00:14.361Z,27.48
2022-12-11T04:02:42.385Z,26.55
2022-12-11T04:05:10.887Z,28.52
2022-12-11T04:07:37.980Z,29.15
2022-12-11T04:10:05.879Z,29.85
2022-12-11T04:12:32.743Z,29.58
2022-12-11T04:15:02.226Z,28.75
2022-12-11T04:17:49.380Z,31.45
2022-12-11T04:20:35.277Z,29.17
2022-12-11T04:23:23.695Z,30.90
2022-12-11T04:25:51.038Z,30.00
2022-12-11T04:28:18.346Z,29.50
2022-12-11T04:30:49.801Z,26.95
2022-12-11T04:33:17.012Z,29.73
2022-12-11T04:35:43.877Z,27.92
2022-12-11T04:38:10.919Z,27.90
2022-12-11T04:40:37.846Z,28.98
2022-12-11T04:43:04.760Z,30.00
2022-12-11T04:45:31.690Z,28.58
2022-12-11T04:47:59.616Z,31.48
2022-12-11T04:50:26.686Z,28.45
2022-12-11T04:52:57.649Z,32.42
2022-12-11T04:55:25.990Z,31.20
2022-12-11T04:57:52.904Z,30.00
2022-12-11T05:00:19.862Z,30.60
2022-12-11T05:02:46.816Z,30.55
2022-12-11T05:05:14.335Z,31.17
2022-12-11T05:07:41.996Z,30.15
2022-12-11T05:10:09.905Z,32.03
2022-12-11T05:12:37.062Z,32.83
2022-12-11T05:15:04.065Z,32.55
2022-12-11T05:17:30.862Z,32.30
2022-12-11T05:19:57.818Z,34.15
2022-12-11T05:22:24.674Z,34.10
2022-12-11T05:24:51.470Z,34.85
2022-12-11T05:27:18.228Z,34.47
2022-12-11T05:29:45.063Z,38.33
2022-12-11T05:32:11.824Z,35.38
2022-12-11T05:34:38.727Z,34.92
2022-12-11T05:37:05.744Z,34.38
2022-12-11T05:39:32.664Z,36.10
2022-12-11T05:41:59.418Z,35.38
2022-12-11T05:44:27.103Z,37.67
2022-12-11T05:46:54.073Z,36.40
2022-12-11T05:49:25.927Z,37.42
2022-12-11T05:51:55.925Z,38.70
2022-12-11T05:54:22.964Z,39.08
2022-12-11T05:56:51.301Z,39.17
2022-12-11T05:59:19.726Z,38.22
2022-12-11T06:01:46.676Z,38.60
2022-12-11T06:04:13.719Z,37.75
2022-12-11T06:06:40.887Z,38.22
2022-12-11T06:09:08.434Z,39.70
2022-12-11T06:11:36.123Z,41.33
2022-12-11T06:14:03.915Z,40.33
2022-12-11T06:16:31.328Z,41.17
2022-12-11T06:18:58.859Z,41.25
2022-12-11T06:21:28.502Z,45.90
2022-12-11T06:23:57.346Z,44.78
2022-12-11T06:26:25.308Z,45.58
2022-12-11T06:28:54.043Z,44.78
2022-12-11T06:31:21.875Z,44.13
2022-12-11T06:33:49.117Z,45.45
2022-12-11T06:36:18.775Z,46.10
2022-12-11T06:38:46.223Z,47.35
2022-12-11T06:41:13.766Z,48.97
2022-12-11T06:43:43.236Z,48.85
2022-12-11T06:46:13.354Z,47.28
2022-12-11T06:48:42.255Z,45.08
2022-12-11T06:51:18.497Z,45.70
2022-12-11T06:53:45.960Z,46.30
2022-12-11T06:56:15.146Z,46.55
2022-12-11T06:58:42.978Z,49.15
2022-12-11T07:01:25.228Z,47.53
2022-12-11T07:03:59.626Z,46.58
2022-12-11T07:06:28.398Z,45.17
2022-12-11T07:08:55.850Z,47.70
2022-12-11T07:11:23.336Z,44.42
2022-12-11T07:13:50.325Z,46.80
2022-12-11T07:16:18.780Z,44.80
2022-12-11T07:18:50.507Z,45.80
2022-12-11T07:21:17.575Z,48.33
2022-12-11T07:23:44.446Z,46.90
2022-12-11T07:26:15.061Z,45.40
2022-12-11T07:28:42.506Z,41.72
2022-12-11T07:31:11.875Z,48.22
2022-12-11T07:33:39.054Z,46.17
2022-12-11T07:36:07.817Z,46.40
2022-12-11T07:38:34.885Z,45.80
2022-12-11T07:41:06.533Z,47.53
2022-12-11T07:43:34.228Z,46.40
2022-12-11T07:46:07.026Z,45.17
2022-12-11T07:51:16.119Z,44.53
2022-12-11T07:53:44.356Z,44.70
2022-12-11T07:56:11.817Z,45.53
2022-12-11T07:58:39.007Z,45.13
2022-12-11T08:01:35.269Z,46.65
2022-12-11T08:04:03.854Z,43.22
2022-12-11T08:06:33.789Z,44.25
2022-12-11T08:09:03.604Z,47.35
2022-12-11T08:11:30.611Z,45.42
2022-12-11T08:13:59.699Z,45.85
2022-12-11T08:16:27.308Z,44.33
2022-12-11T08:18:54.398Z,43.17
2022-12-11T08:21:23.702Z,43.78
2022-12-11T08:23:51.971Z,43.10
2022-12-11T08:26:28.165Z,43.47
2022-12-11T08:28:55.600Z,40.88
2022-12-11T08:31:22.582Z,40.40
2022-12-11T08:33:50.749Z,41.42
2022-12-11T08:36:20.285Z,44.08
2022-12-11T08:38:50.512Z,41.90
2022-12-11T08:44:02.138Z,41.88
2022-12-11T08:46:33.230Z,41.10
2022-12-11T08:49:00.337Z,43.42
2022-12-11T08:51:29.243Z,41.72
2022-12-11T08:53:57.629Z,44.47
2022-12-11T08:56:25.391Z,40.70
2022-12-11T08:58:52.984Z,42.38
2022-12-11T09:01:22.240Z,40.03
2022-12-11T09:03:50.730Z,41.85
2022-12-11T09:06:19.775Z,42.17
2022-12-11T09:08:52.188Z,41.10
2022-12-11T09:11:25.933Z,40.60
2022-12-11T09:13:54.211Z,42.00
2022-12-11T09:16:23.443Z,42.00
2022-12-11T09:18:51.954Z,42.10
2022-12-11T09:21:21.427Z,41.67
2022-12-11T09:23:48.423Z,41.95
2022-12-11T09:26:17.821Z,41.95
2022-12-11T09:28:46.986Z,41.35
2022-12-11T09:31:20.194Z,43.20
2022-12-11T09:33:47.652Z,42.05
2022-12-11T09:36:14.430Z,44.75
2022-12-11T09:38:43.590Z,42.22
2022-12-11T09:41:22.534Z,42.85
2022-12-11T09:43:54.976Z,41.63
2022-12-11T09:46:24.700Z,42.05
2022-12-11T09:48:53.799Z,40.65
2022-12-11T09:51:48.402Z,41.85
2022-12-11T09:54:16.604Z,41.55
2022-12-11T09:56:52.564Z,39.85
2022-12-11T09:59:31.067Z,42.35
2022-12-11T10:02:05.758Z,39.55
2022-12-11T10:04:35.334Z,41.70
2022-12-11T10:07:21.586Z,37.83
2022-12-11T10:10:19.071Z,37.22
2022-12-11T10:13:06.154Z,37.95
2022-12-11T10:16:04.140Z,40.00
2022-12-11T10:18:32.681Z,38.50
2022-12-11T10:21:02.614Z,38.65
2022-12-11T10:23:36.563Z,36.28
2022-12-11T10:26:10.606Z,37.13
2022-12-11T10:28:37.570Z,38.58
2022-12-11T10:31:42.748Z,36.92
2022-12-11T10:34:15.158Z,33.97
2022-12-11T10:36:43.001Z,35.10
2022-12-11T10:39:21.830Z,34.28
2022-12-11T10:41:54.285Z,33.70
2022-12-11T10:44:26.949Z,32.00
2022-12-11T10:47:12.183Z,31.25
2022-12-11T10:49:44.192Z,30.85
2022-12-11T10:52:19.789Z,29.73
2022-12-11T10:54:54.342Z,30.10
2022-12-11T10:57:37.024Z,29.80
2022-12-11T11:00:08.961Z,29.10
2022-12-11T11:02:41.533Z,30.07
2022-12-11T11:05:14.487Z,29.05
2022-12-11T11:10:11.996Z,28.20
2022-12-11T11:12:42.920Z,27.67
2022-12-11T11:15:16.537Z,27.15
2022-12-11T11:22:17.243Z,26.33
2022-12-11T11:24:56.727Z,23.48
2022-12-11T11:27:45.776Z,21.95
2022-12-11T11:30:41.008Z,21.58
2022-12-11T11:33:22.140Z,20.35
2022-12-11T11:35:55.353Z,23.48
2022-12-11T11:38:46.637Z,25.42
2022-12-11T11:41:24.154Z,23.25
2022-12-11T11:43:58.043Z,24.63
2022-12-11T11:46:46.261Z,25.08
2022-12-11T11:49:13.072Z,25.73
2022-12-11T11:51:49.088Z,25.67
2022-12-11T11:54:33.497Z,23.77
2022-12-11T11:57:12.552Z,23.08
2022-12-11T11:59:47.969Z,22.48
2022-12-11T12:02:18.175Z,22.85
2022-12-11T12:04:47.040Z,21.95
2022-12-11T12:07:38.771Z,22.23
2022-12-11T12:10:12.277Z,23.13
2022-12-11T12:13:18.781Z,22.50
2022-12-11T12:16:01.866Z,22.90
2022-12-11T12:18:34.568Z,21.23
2022-12-11T12:21:28.663Z,23.27
2022-12-11T12:24:12.458Z,22.45
2022-12-11T12:26:47.084Z,21.05
2022-12-11T12:29:43.415Z,22.15
2022-12-11T12:32:21.885Z,20.63
2022-12-11T12:35:15.955Z,19.88
2022-12-11T12:38:07.241Z,20.38
2022-12-11T12:40:38.214Z,22.20
2022-12-11T12:43:37.278Z,22.20
2022-12-11T12:46:10.450Z,21.15
2022-12-11T12:48:37.538Z,21.50
2022-12-11T12:51:05.355Z,21.58
2022-12-11T12:53:36.180Z,21.33
2022-12-11T12:56:04.530Z,19.73
2022-12-11T12:58:40.676Z,19.58
2022-12-11T13:01:13.444Z,21.10
2022-12-11T13:06:39.146Z,20.10
2022-12-11T13:09:27.880Z,20.60
2022-12-11T13:11:59.659Z,20.15
2022-12-11T13:14:31.213Z,21.00
2022-12-11T13:17:19.767Z,22.40
2022-12-11T13:19:48.185Z,21.40
2022-12-11T13:22:14.982Z,20.95
2022-12-11T13:24:52.562Z,22.00
2022-12-11T13:27:36.713Z,20.67
2022-12-11T13:30:08.254Z,20.95
2022-12-11T13:32:35.402Z,21.92
2022-12-11T13:35:06.581Z,22.25
2022-12-11T13:37:41.581Z,20.17
2022-12-11T13:40:23.812Z,22.23
2022-12-11T13:42:55.657Z,21.60
2022-12-11T13:45:28.730Z,20.73
2022-12-11T13:47:57.500Z,21.23
2022-12-11T13:50:31.799Z,22.60
2022-12-11T13:53:00.623Z,23.27
2022-12-11T13:55:30.916Z,22.50
2022-12-11T13:57:58.254Z,23.40
2022-12-11T14:00:33.481Z,24.08
2022-12-11T14:03:07.543Z,24.90
2022-12-11T14:05:35.117Z,24.48
2022-12-11T14:08:09.351Z,22.70
2022-12-11T14:10:37.214Z,24.38
2022-12-11T14:13:22.278Z,24.52
2022-12-11T14:15:49.395Z,25.52
2022-12-11T14:18:23.711Z,25.02
2022-12-11T14:21:05.227Z,24.95
2022-12-11T14:23:37.356Z,23.42
2022-12-11T14:26:22.773Z,22.90
2022-12-11T14:28:50.035Z,23.33
2022-12-11T14:31:26.462Z,22.88
2022-12-11T14:34:20.878Z,24.40
2022-12-11T14:36:49.217Z,23.98
2022-12-11T14:40:07.243Z,24.48
2022-12-11T14:43:15.067Z,23.30
2022-12-11T14:45:45.033Z,23.92
2022-12-11T14:48:22.180Z,22.85
2022-12-11T14:50:55.005Z,21.65
2022-12-11T14:56:02.684Z,21.63
2022-12-11T14:58:30.046Z,20.25
2022-12-11T15:01:20.744Z,21.35
2022-12-11T15:03:47.747Z,19.98
2022-12-11T15:06:33.296Z,21.50
2022-12-11T15:09:36.204Z,21.75
2022-12-11T15:12:13.916Z,19.58
2022-12-11T15:14:56.115Z,20.10
2022-12-11T15:17:25.497Z,19.30
2022-12-11T15:19:56.132Z,18.98
2022-12-11T15:22:27.502Z,18.67
2022-12-11T15:24:55.145Z,19.63
2022-12-11T15:27:38.350Z,20.45
2022-12-11T15:30:28.371Z,20.63
2022-12-11T15:33:22.397Z,20.67
2022-12-11T15:36:05.171Z,19.88
2022-12-11T15:38:37.762Z,20.33
2022-12-11T15:41:06.104Z,20.77
2022-12-11T15:43:36.860Z,21.92
2022-12-11T15:46:05.112Z,20.98
2022-12-11T15:48:32.024Z,21.95
2022-12-11T15:50:58.953Z,22.02
2022-12-11T15:53:25.927Z,22.08
2022-12-11T15:56:03.219Z,23.83
2022-12-11T15:58:34.180Z,22.70
2022-12-11T16:01:32.773Z,21.45
2022-12-11T16:04:08.120Z,22.70
2022-12-11T16:06:52.894Z,22.08
2022-12-11T16:09:21.099Z,21.85
2022-12-11T16:11:50.230Z,23.52
2022-12-11T16:14:24.357Z,23.65
2022-12-11T16:17:08.004Z,22.23
2022-12-11T16:19:39.342Z,23.83
2022-12-11T16:22:17.347Z,22.77
2022-12-11T16:24:54.367Z,22.60
2022-12-11T16:27:25.704Z,24.20
2022-12-11T16:29:55.369Z,23.25
2022-12-11T16:32:28.841Z,22.40
2022-12-11T16:35:04.890Z,24.58
2022-12-11T16:37:34.683Z,23.63
2022-12-11T16:40:05.421Z,24.40
2022-12-11T16:42:37.244Z,23.77
2022-12-11T16:45:40.248Z,23.70
2022-12-11T16:48:14.662Z,24.42
2022-12-11T16:50:50.700Z,22.10
2022-12-11T16:53:22.081Z,23.10
2022-12-11T16:55:53.464Z,24.25
2022-12-11T16:58:30.568Z,23.10
2022-12-11T17:01:02.559Z,25.08
2022-12-11T17:03:32.823Z,24.33
2022-12-11T17:06:32.156Z,23.92
2022-12-11T17:09:15.661Z,25.55
2022-12-11T17:11:57.117Z,22.23
2022-12-11T17:14:28.828Z,24.23
2022-12-11T17:17:12.298Z,24.75
2022-12-11T17:19:45.237Z,23.70
2022-12-11T17:22:12.251Z,26.50
2022-12-11T17:24:39.190Z,24.63
2022-12-11T17:27:06.634Z,24.75
2022-12-11T17:29:34.452Z,23.52
2022-12-11T17:32:03.307Z,24.08
2022-12-11T17:34:36.144Z,24.10
2022-12-11T17:37:05.227Z,24.67
2022-12-11T17:39:32.470Z,23.95
2022-12-11T17:41:59.610Z,24.20
2022-12-11T17:44:26.923Z,23.85
2022-12-11T17:46:55.075Z,23.60
2022-12-11T17:49:21.894Z,24.58
2022-12-11T17:51:48.678Z,23.00
2022-12-11T17:54:15.738Z,22.63
2022-12-11T17:56:42.645Z,23.85
2022-12-11T17:59:09.480Z,23.88
2022-12-11T18:01:36.422Z,25.17
2022-12-11T18:04:03.856Z,24.20
2022-12-11T18:06:30.856Z,24.23
2022-12-11T18:08:58.576Z,23.85
2022-12-11T18:11:25.848Z,22.77
2022-12-11T18:13:53.589Z,23.88
2022-12-11T18:16:25.237Z,23.02
2022-12-11T18:18:52.473Z,23.65
2022-12-11T18:21:24.268Z,23.77
2022-12-11T18:23:51.547Z,23.67
2022-12-11T18:26:19.551Z,24.17
2022-12-11T18:28:47.863Z,23.77
2022-12-11T18:31:15.523Z,23.73
2022-12-11T18:33:44.285Z,24.23
2022-12-11T18:36:12.990Z,24.08
2022-12-11T18:38:40.440Z,23.73
2022-12-11T18:41:08.885Z,22.13
2022-12-11T18:43:37.511Z,23.23
2022-12-11T18:46:14.238Z,21.70
2022-12-11T18:48:42.193Z,23.52
2022-12-11T18:51:12.216Z,23.35
2022-12-11T18:53:39.589Z,23.58
2022-12-11T18:56:12.653Z,21.35
2022-12-11T18:58:39.801Z,23.38
2022-12-11T19:01:10.919Z,22.23
2022-12-11T19:03:37.979Z,20.90
2022-12-11T19:06:14.012Z,23.17
2022-12-11T19:08:41.397Z,22.80
2022-12-11T19:11:08.669Z,22.33
2022-12-11T19:13:36.084Z,22.02
2022-12-11T19:16:03.055Z,22.67
2022-12-11T19:18:29.931Z,21.60
2022-12-11T19:21:06.780Z,20.98
2022-12-11T19:23:36.417Z,22.63
2022-12-11T19:26:03.606Z,22.35
2022-12-11T19:28:31.133Z,22.63
2022-12-11T19:30:58.231Z,21.13
2022-12-11T19:33:25.205Z,21.83
2022-12-11T19:36:05.726Z,21.52
2022-12-11T19:38:32.939Z,20.35
2022-12-11T19:40:59.959Z,21.52
2022-12-11T19:43:26.789Z,21.65
2022-12-11T19:45:53.862Z,21.73
2022-12-11T19:48:20.964Z,22.48
2022-12-11T19:50:47.895Z,21.75
2022-12-11T19:53:14.822Z,21.55
2022-12-11T19:55:48.598Z,22.55
2022-12-11T19:58:15.593Z,23.40
2022-12-11T20:00:42.703Z,23.00
2022-12-11T20:03:09.664Z,22.45
2022-12-11T20:05:37.368Z,23.27
2022-12-11T20:08:27.731Z,22.98
2022-12-11T20:10:51.405Z,24.08
2022-12-11T20:13:18.219Z,21.88
2022-12-11T20:15:45.200Z,22.48
2022-12-11T20:18:18.296Z,21.30
2022-12-11T20:20:45.666Z,21.95
2022-12-11T20:23:12.476Z,22.05
2022-12-11T20:25:41.096Z,21.30
2022-12-11T20:28:08.423Z,21.30
2022-12-11T20:30:35.700Z,22.42
2022-12-11T20:33:02.673Z,21.85
2022-12-11T20:35:29.490Z,20.58
2022-12-11T20:37:56.534Z,20.60
2022-12-11T20:40:24.427Z,22.27
2022-12-11T20:42:52.110Z,22.25
2022-12-11T20:45:19.131Z,21.50
2022-12-11T20:47:46.787Z,19.88
2022-12-11T20:50:13.774Z,20.45
2022-12-11T20:52:40.751Z,19.50
2022-12-11T20:55:08.348Z,20.40
2022-12-11T20:57:37.348Z,20.70
2022-12-11T21:00:08.162Z,20.38
2022-12-11T21:02:35.368Z,19.95
2022-12-11T21:05:02.278Z,21.30
2022-12-11T21:07:29.156Z,21.38
2022-12-11T21:09:55.935Z,20.55
2022-12-11T21:12:26.894Z,19.48
2022-12-11T21:14:56.860Z,19.48
2022-12-11T21:17:23.942Z,20.02
2022-12-11T21:19:51.249Z,19.73
2022-12-11T21:22:18.057Z,20.42
2022-12-11T21:24:44.985Z,18.85
2022-12-11T21:27:11.796Z,21.55
2022-12-11T21:29:38.780Z,22.00
2022-12-11T21:32:06.005Z,34.28
2022-12-11T21:34:33.156Z,28.67
2022-12-11T21:37:00.144Z,23.60
2022-12-11T21:39:28.788Z,22.70
2022-12-11T21:41:55.645Z,20.40
2022-12-11T21:47:09.696Z,21.85
2022-12-11T21:49:37.580Z,22.85
2022-12-11T21:52:05.221Z,22.33
2022-12-11T21:54:32.186Z,21.92
2022-12-11T21:56:59.246Z,20.75
2022-12-11T21:59:27.059Z,21.20
2022-12-11T22:01:54.049Z,21.65
2022-12-11T22:04:20.887Z,22.38
2022-12-11T22:06:47.960Z,21.67
2022-12-11T22:09:16.200Z,19.92
2022-12-11T22:11:45.190Z,20.40
2022-12-11T22:14:14.771Z,21.30
2022-12-11T22:16:42.074Z,19.17
2022-12-11T22:19:09.724Z,20.98
2022-12-11T22:21:37.028Z,19.45
2022-12-11T22:24:04.241Z,17.73
2022-12-11T22:26:31.162Z,19.38
2022-12-11T22:28:59.267Z,18.90
2022-12-11T22:31:27.324Z,18.85
2022-12-11T22:33:55.031Z,18.60
2022-12-11T22:36:24.132Z,20.48
2022-12-11T22:38:51.555Z,18.05
2022-12-11T22:41:31.039Z,18.83
2022-12-11T22:43:58.889Z,19.77
2022-12-11T22:46:29.021Z,16.98
2022-12-11T22:48:56.988Z,18.48
2022-12-11T22:51:24.011Z,19.00
2022-12-11T22:53:52.211Z,17.60
2022-12-11T22:56:20.969Z,18.80
2022-12-11T22:58:48.081Z,17.70
2022-12-11T23:01:19.041Z,18.42
2022-12-11T23:03:47.010Z,17.52
2022-12-11T23:06:17.037Z,16.92
2022-12-11T23:08:44.236Z,16.73
2022-12-11T23:11:34.902Z,17.48
2022-12-11T23:14:02.296Z,17.13
2022-12-11T23:16:29.597Z,16.13
2022-12-11T23:18:58.213Z,17.10
2022-12-11T23:21:27.951Z,17.77
2022-12-11T23:23:56.305Z,16.50
2022-12-11T23:26:23.708Z,15.82
2022-12-11T23:28:50.513Z,15.18
2022-12-11T23:31:18.247Z,15.85
2022-12-11T23:33:45.574Z,17.80
2022-12-11T23:36:13.783Z,15.20
2022-12-11T23:38:41.022Z,16.85
2022-12-11T23:41:10.132Z,17.48
2022-12-11T23:43:37.901Z,16.13
2022-12-11T23:46:07.887Z,16.10
2022-12-11T23:48:34.737Z,16.25
2022-12-11T23:51:03.294Z,16.80
2022-12-11T23:53:30.298Z,16.77
2022-12-11T23:55:57.248Z,16.80
2022-12-11T23:58:24.151Z,16.17
